sensor_id;sensor_type;location;lat;lon;timestamp;pressure;altitude;pressure_sealevel;temperature;humidity
58686;BME280;44465;53.206;-6.106;2023-04-29T00:00:04;101552.66;;;19.39;53.12
58686;BME280;44465;53.206;-6.106;2023-04-29T00:02:39;101548.28;;;19.36;52.96
58686;BME280;44465;53.206;-6.106;2023-04-29T00:05:05;101619.72;;;19.80;53.29
58686;BME280;44465;53.206;-6.106;2023-04-29T00:07:31;101523.59;;;19.30;52.85
58686;BME280;44465;53.206;-6.106;2023-04-29T00:09:57;101595.34;;;19.64;53.01
58686;BME280;44465;53.206;-6.106;2023-04-29T00:12:23;101633.59;;;19.92;53.24
58686;BME280;44465;53.206;-6.106;2023-04-29T00:14:48;101549.97;;;19.39;53.21
58686;BME280;44465;53.206;-6.106;2023-04-29T00:17:14;101548.13;;;19.41;53.15
58686;BME280;44465;53.206;-6.106;2023-04-29T00:19:40;101624.81;;;19.88;53.18
58686;BME280;44465;53.206;-6.106;2023-04-29T00:22:06;101604.84;;;19.73;53.23
58686;BME280;44465;53.206;-6.106;2023-04-29T00:24:32;101598.56;;;19.74;53.22
58686;BME280;44465;53.206;-6.106;2023-04-29T00:26:57;101610.66;;;19.84;53.12
58686;BME280;44465;53.206;-6.106;2023-04-29T00:29:23;101576.75;;;19.61;52.76
58686;BME280;44465;53.206;-6.106;2023-04-29T00:31:49;101598.69;;;19.71;52.96
58686;BME280;44465;53.206;-6.106;2023-04-29T00:34:15;101572.47;;;19.57;52.91
58686;BME280;44465;53.206;-6.106;2023-04-29T00:36:40;101630.09;;;19.90;53.02
58686;BME280;44465;53.206;-6.106;2023-04-29T00:39:06;101540.13;;;19.41;53.14
58686;BME280;44465;53.206;-6.106;2023-04-29T00:41:32;101625.56;;;19.92;52.85
58686;BME280;44465;53.206;-6.106;2023-04-29T00:43:57;101630.81;;;19.95;52.82
58686;BME280;44465;53.206;-6.106;2023-04-29T00:46:23;101556.63;;;19.52;53.03
58686;BME280;44465;53.206;-6.106;2023-04-29T00:48:49;101576.81;;;19.60;52.67
58686;BME280;44465;53.206;-6.106;2023-04-29T00:51:15;101582.88;;;19.65;52.62
58686;BME280;44465;53.206;-6.106;2023-04-29T00:53:42;101579.31;;;19.64;52.80
58686;BME280;44465;53.206;-6.106;2023-04-29T00:56:08;101592.50;;;19.69;52.64
58686;BME280;44465;53.206;-6.106;2023-04-29T00:58:34;101557.63;;;19.50;52.66
58686;BME280;44465;53.206;-6.106;2023-04-29T01:01:01;101588.16;;;19.66;52.64
58686;BME280;44465;53.206;-6.106;2023-04-29T01:03:29;101611.78;;;19.79;52.75
58686;BME280;44465;53.206;-6.106;2023-04-29T01:06:11;101547.13;;;19.44;52.81
58686;BME280;44465;53.206;-6.106;2023-04-29T01:11:34;101647.44;;;20.03;52.52
58686;BME280;44465;53.206;-6.106;2023-04-29T01:14:04;101646.50;;;20.04;52.73
58686;BME280;44465;53.206;-6.106;2023-04-29T01:16:37;101601.94;;;19.79;52.46
58686;BME280;44465;53.206;-6.106;2023-04-29T01:22:08;101635.97;;;19.99;52.84
58686;BME280;44465;53.206;-6.106;2023-04-29T01:24:34;101609.53;;;19.92;52.62
58686;BME280;44465;53.206;-6.106;2023-04-29T01:27:30;101626.16;;;20.00;52.63
58686;BME280;44465;53.206;-6.106;2023-04-29T01:33:02;101609.53;;;19.92;52.35
58686;BME280;44465;53.206;-6.106;2023-04-29T01:38:36;101629.53;;;20.05;52.75
58686;BME280;44465;53.206;-6.106;2023-04-29T01:41:14;101633.03;;;20.07;52.30
58686;BME280;44465;53.206;-6.106;2023-04-29T01:43:46;101603.38;;;19.90;52.49
58686;BME280;44465;53.206;-6.106;2023-04-29T01:46:18;101630.50;;;20.03;52.55
58686;BME280;44465;53.206;-6.106;2023-04-29T01:48:44;101634.75;;;20.08;52.47
58686;BME280;44465;53.206;-6.106;2023-04-29T01:51:10;101616.69;;;19.91;52.59
58686;BME280;44465;53.206;-6.106;2023-04-29T01:53:37;101619.53;;;19.87;52.15
58686;BME280;44465;53.206;-6.106;2023-04-29T01:56:06;101633.34;;;19.98;52.21
58686;BME280;44465;53.206;-6.106;2023-04-29T01:58:55;101646.50;;;20.04;52.32
58686;BME280;44465;53.206;-6.106;2023-04-29T02:01:50;101638.69;;;19.98;52.10
58686;BME280;44465;53.206;-6.106;2023-04-29T02:04:16;101616.88;;;19.87;52.38
58686;BME280;44465;53.206;-6.106;2023-04-29T02:06:41;101635.00;;;20.02;52.25
58686;BME280;44465;53.206;-6.106;2023-04-29T02:09:07;101626.28;;;19.97;52.29
58686;BME280;44465;53.206;-6.106;2023-04-29T02:11:34;101635.97;;;19.99;52.15
58686;BME280;44465;53.206;-6.106;2023-04-29T02:14:00;101634.13;;;20.02;52.35
58686;BME280;44465;53.206;-6.106;2023-04-29T02:16:51;101649.94;;;20.08;52.13
58686;BME280;44465;53.206;-6.106;2023-04-29T02:19:16;101623.63;;;19.97;52.12
58686;BME280;44465;53.206;-6.106;2023-04-29T02:21:42;101621.97;;;19.93;52.10
58686;BME280;44465;53.206;-6.106;2023-04-29T02:24:08;101601.94;;;19.79;52.30
58686;BME280;44465;53.206;-6.106;2023-04-29T02:26:33;101652.53;;;20.09;52.14
58686;BME280;44465;53.206;-6.106;2023-04-29T02:28:59;101640.91;;;20.10;52.26
58686;BME280;44465;53.206;-6.106;2023-04-29T02:31:25;101644.50;;;20.09;52.07
58686;BME280;44465;53.206;-6.106;2023-04-29T02:33:52;101636.63;;;20.06;52.06
58686;BME280;44465;53.206;-6.106;2023-04-29T02:36:18;101641.16;;;20.04;52.35
58686;BME280;44465;53.206;-6.106;2023-04-29T02:38:44;101642.94;;;20.04;52.26
58686;BME280;44465;53.206;-6.106;2023-04-29T02:41:09;101614.81;;;19.93;52.33
58686;BME280;44465;53.206;-6.106;2023-04-29T02:43:40;101550.44;;;19.50;52.28
58686;BME280;44465;53.206;-6.106;2023-04-29T02:46:05;101621.72;;;19.99;52.23
58686;BME280;44465;53.206;-6.106;2023-04-29T02:48:31;101632.88;;;20.10;52.59
58686;BME280;44465;53.206;-6.106;2023-04-29T02:50:56;101561.63;;;19.62;52.34
58686;BME280;44465;53.206;-6.106;2023-04-29T02:53:22;101617.44;;;19.95;52.49
58686;BME280;44465;53.206;-6.106;2023-04-29T02:55:47;101650.56;;;20.14;52.24
58686;BME280;44465;53.206;-6.106;2023-04-29T02:58:13;101605.22;;;19.88;52.03
58686;BME280;44465;53.206;-6.106;2023-04-29T03:00:41;101640.88;;;20.12;52.21
58686;BME280;44465;53.206;-6.106;2023-04-29T03:03:08;101545.69;;;19.59;52.47
58686;BME280;44465;53.206;-6.106;2023-04-29T03:05:33;101552.88;;;19.57;52.14
58686;BME280;44465;53.206;-6.106;2023-04-29T03:08:00;101574.69;;;19.69;52.26
58686;BME280;44465;53.206;-6.106;2023-04-29T03:10:26;101592.13;;;19.80;52.21
58686;BME280;44465;53.206;-6.106;2023-04-29T03:12:52;101639.16;;;20.09;52.24
58686;BME280;44465;53.206;-6.106;2023-04-29T03:15:17;101574.72;;;19.68;52.28
58686;BME280;44465;53.206;-6.106;2023-04-29T03:17:44;101581.44;;;19.80;52.08
58686;BME280;44465;53.206;-6.106;2023-04-29T03:20:11;101633.47;;;19.95;52.35
58686;BME280;44465;53.206;-6.106;2023-04-29T03:22:38;101621.25;;;19.88;52.09
58686;BME280;44465;53.206;-6.106;2023-04-29T03:25:04;101596.84;;;19.73;52.12
58686;BME280;44465;53.206;-6.106;2023-04-29T03:27:30;101607.28;;;19.79;52.46
58686;BME280;44465;53.206;-6.106;2023-04-29T03:29:56;101659.44;;;20.15;52.04
58686;BME280;44465;53.206;-6.106;2023-04-29T03:32:21;101676.16;;;20.22;52.00
58686;BME280;44465;53.206;-6.106;2023-04-29T03:34:47;101561.63;;;19.62;51.98
58686;BME280;44465;53.206;-6.106;2023-04-29T03:37:22;101627.16;;;19.97;52.21
58686;BME280;44465;53.206;-6.106;2023-04-29T03:39:54;101643.84;;;20.04;52.23
58686;BME280;44465;53.206;-6.106;2023-04-29T03:42:19;101607.19;;;19.82;52.36
58686;BME280;44465;53.206;-6.106;2023-04-29T03:44:45;101614.94;;;19.90;52.00
58686;BME280;44465;53.206;-6.106;2023-04-29T03:47:11;101612.44;;;19.86;51.94
58686;BME280;44465;53.206;-6.106;2023-04-29T03:49:38;101587.06;;;19.72;52.33
58686;BME280;44465;53.206;-6.106;2023-04-29T03:52:03;101595.75;;;19.77;52.07
58686;BME280;44465;53.206;-6.106;2023-04-29T03:54:29;101629.88;;;19.96;52.10
58686;BME280;44465;53.206;-6.106;2023-04-29T03:56:55;101573.91;;;19.66;51.76
58686;BME280;44465;53.206;-6.106;2023-04-29T03:59:21;101627.03;;;20.01;52.26
58686;BME280;44465;53.206;-6.106;2023-04-29T04:01:47;101653.13;;;20.18;52.33
58686;BME280;44465;53.206;-6.106;2023-04-29T04:04:13;101584.28;;;19.75;52.05
58686;BME280;44465;53.206;-6.106;2023-04-29T04:06:47;101616.72;;;19.90;52.14
58686;BME280;44465;53.206;-6.106;2023-04-29T04:09:18;101645.69;;;20.02;52.04
58686;BME280;44465;53.206;-6.106;2023-04-29T04:11:44;101639.41;;;20.03;51.95
58686;BME280;44465;53.206;-6.106;2023-04-29T04:14:11;101611.59;;;19.83;51.92
58686;BME280;44465;53.206;-6.106;2023-04-29T04:16:37;101665.56;;;20.19;51.98
58686;BME280;44465;53.206;-6.106;2023-04-29T04:19:03;101674.34;;;20.22;52.09
58686;BME280;44465;53.206;-6.106;2023-04-29T04:21:30;101590.41;;;19.77;51.91
58686;BME280;44465;53.206;-6.106;2023-04-29T04:24:02;101658.31;;;20.22;52.03
58686;BME280;44465;53.206;-6.106;2023-04-29T04:26:29;101657.41;;;20.22;52.09
58686;BME280;44465;53.206;-6.106;2023-04-29T04:29:00;101662.69;;;20.23;52.01
58686;BME280;44465;53.206;-6.106;2023-04-29T04:31:32;101640.09;;;20.08;52.13
58686;BME280;44465;53.206;-6.106;2023-04-29T04:33:58;101639.16;;;20.09;51.95
58686;BME280;44465;53.206;-6.106;2023-04-29T04:36:24;101626.22;;;19.98;52.01
58686;BME280;44465;53.206;-6.106;2023-04-29T04:38:51;101653.94;;;20.20;52.12
58686;BME280;44465;53.206;-6.106;2023-04-29T04:41:16;101591.25;;;19.79;51.90
58686;BME280;44465;53.206;-6.106;2023-04-29T04:43:45;101654.16;;;20.13;51.88
58686;BME280;44465;53.206;-6.106;2023-04-29T04:46:21;101601.94;;;19.79;51.99
58686;BME280;44465;53.206;-6.106;2023-04-29T04:49:04;101670.69;;;20.25;52.05
58686;BME280;44465;53.206;-6.106;2023-04-29T04:51:32;101640.22;;;20.05;51.71
58686;BME280;44465;53.206;-6.106;2023-04-29T04:53:58;101631.56;;;19.98;52.00
58686;BME280;44465;53.206;-6.106;2023-04-29T04:56:27;101630.56;;;20.01;52.12
58686;BME280;44465;53.206;-6.106;2023-04-29T04:58:52;101631.47;;;20.02;52.23
58686;BME280;44465;53.206;-6.106;2023-04-29T05:01:18;101584.28;;;19.75;52.09
58686;BME280;44465;53.206;-6.106;2023-04-29T05:03:43;101579.22;;;19.67;52.06
58686;BME280;44465;53.206;-6.106;2023-04-29T05:06:09;101643.88;;;20.03;52.02
58686;BME280;44465;53.206;-6.106;2023-04-29T05:08:37;101604.56;;;19.81;52.05
58686;BME280;44465;53.206;-6.106;2023-04-29T05:11:04;101586.31;;;19.68;51.96
58686;BME280;44465;53.206;-6.106;2023-04-29T05:13:29;101604.72;;;19.76;51.68
58686;BME280;44465;53.206;-6.106;2023-04-29T05:15:55;101591.69;;;19.67;51.81
58686;BME280;44465;53.206;-6.106;2023-04-29T05:18:25;101686.03;;;20.20;52.12
58686;BME280;44465;53.206;-6.106;2023-04-29T05:20:51;101666.81;;;20.08;51.94
58686;BME280;44465;53.206;-6.106;2023-04-29T05:23:16;101581.91;;;19.67;52.26
58686;BME280;44465;53.206;-6.106;2023-04-29T05:25:44;101626.81;;;19.81;51.88
58686;BME280;44465;53.206;-6.106;2023-04-29T05:28:10;101628.25;;;19.92;52.10
58686;BME280;44465;53.206;-6.106;2023-04-29T05:30:38;101675.31;;;20.20;52.12
58686;BME280;44465;53.206;-6.106;2023-04-29T05:33:05;101696.38;;;20.29;52.06
58686;BME280;44465;53.206;-6.106;2023-04-29T05:35:30;101696.31;;;20.30;51.93
58686;BME280;44465;53.206;-6.106;2023-04-29T05:37:57;101653.03;;;19.97;51.92
58686;BME280;44465;53.206;-6.106;2023-04-29T05:40:34;101649.53;;;19.95;52.16
58686;BME280;44465;53.206;-6.106;2023-04-29T05:43:25;101675.66;;;20.10;52.12
58686;BME280;44465;53.206;-6.106;2023-04-29T05:45:52;101675.56;;;20.13;52.26
58686;BME280;44465;53.206;-6.106;2023-04-29T05:48:17;101641.53;;;19.93;51.70
58686;BME280;44465;53.206;-6.106;2023-04-29T05:50:43;101696.59;;;20.23;52.01
58686;BME280;44465;53.206;-6.106;2023-04-29T05:53:09;101688.66;;;20.21;51.97
58686;BME280;44465;53.206;-6.106;2023-04-29T05:55:35;101706.97;;;20.32;52.00
58686;BME280;44465;53.206;-6.106;2023-04-29T05:58:01;101629.34;;;19.86;51.94
58686;BME280;44465;53.206;-6.106;2023-04-29T06:00:27;101653.63;;;20.04;51.87
58686;BME280;44465;53.206;-6.106;2023-04-29T06:02:59;101652.94;;;19.98;52.00
58686;BME280;44465;53.206;-6.106;2023-04-29T06:05:26;101653.03;;;19.97;51.81
58686;BME280;44465;53.206;-6.106;2023-04-29T06:08:10;101717.59;;;20.34;51.97
58686;BME280;44465;53.206;-6.106;2023-04-29T06:10:58;101654.88;;;19.95;51.97
58686;BME280;44465;53.206;-6.106;2023-04-29T06:13:24;101716.81;;;20.32;51.77
58686;BME280;44465;53.206;-6.106;2023-04-29T06:15:50;101672.34;;;20.04;52.18
58686;BME280;44465;53.206;-6.106;2023-04-29T06:18:16;101682.84;;;20.10;51.91
58686;BME280;44465;53.206;-6.106;2023-04-29T06:20:42;101717.66;;;20.32;51.79
58686;BME280;44465;53.206;-6.106;2023-04-29T06:23:07;101715.88;;;20.33;51.91
58686;BME280;44465;53.206;-6.106;2023-04-29T06:25:33;101712.41;;;20.29;51.65
58686;BME280;44465;53.206;-6.106;2023-04-29T06:28:01;101627.06;;;19.75;51.81
58686;BME280;44465;53.206;-6.106;2023-04-29T06:30:29;101731.28;;;20.26;52.17
58686;BME280;44465;53.206;-6.106;2023-04-29T06:32:55;101676.34;;;19.92;52.18
58686;BME280;44465;53.206;-6.106;2023-04-29T06:35:21;101681.44;;;19.99;51.85
58686;BME280;44465;53.206;-6.106;2023-04-29T06:37:56;101656.97;;;19.87;51.86
58686;BME280;44465;53.206;-6.106;2023-04-29T06:40:34;101749.75;;;20.32;51.70
58686;BME280;44465;53.206;-6.106;2023-04-29T06:43:07;101688.56;;;19.99;52.12
58686;BME280;44465;53.206;-6.106;2023-04-29T06:45:52;101745.22;;;20.34;51.85
58686;BME280;44465;53.206;-6.106;2023-04-29T06:48:21;101742.66;;;20.31;52.08
58686;BME280;44465;53.206;-6.106;2023-04-29T06:50:54;101760.47;;;20.32;51.98
58686;BME280;44465;53.206;-6.106;2023-04-29T06:53:20;101738.53;;;20.22;52.20
58686;BME280;44465;53.206;-6.106;2023-04-29T06:55:46;101736.78;;;20.21;51.97
58686;BME280;44465;53.206;-6.106;2023-04-29T06:58:13;101771.06;;;20.35;52.04
58686;BME280;44465;53.206;-6.106;2023-04-29T07:00:39;101737.66;;;20.22;52.21
58686;BME280;44465;53.206;-6.106;2023-04-29T07:03:05;101729.03;;;20.13;52.02
58686;BME280;44465;53.206;-6.106;2023-04-29T07:05:30;101764.72;;;20.38;51.85
58686;BME280;44465;53.206;-6.106;2023-04-29T07:07:56;101748.16;;;20.28;51.99
58686;BME280;44465;53.206;-6.106;2023-04-29T07:10:23;101747.19;;;20.29;51.92
58686;BME280;44465;53.206;-6.106;2023-04-29T07:12:53;101762.09;;;20.36;52.12
58686;BME280;44465;53.206;-6.106;2023-04-29T07:15:20;101762.09;;;20.36;52.03
58686;BME280;44465;53.206;-6.106;2023-04-29T07:17:45;101747.31;;;20.26;52.09
58686;BME280;44465;53.206;-6.106;2023-04-29T07:20:12;101760.38;;;20.34;51.78
58686;BME280;44465;53.206;-6.106;2023-04-29T07:22:38;101764.06;;;20.31;52.12
58686;BME280;44465;53.206;-6.106;2023-04-29T07:25:03;101777.22;;;20.37;51.79
58686;BME280;44465;53.206;-6.106;2023-04-29T07:27:29;101782.44;;;20.40;52.25
58686;BME280;44465;53.206;-6.106;2023-04-29T07:29:58;101782.56;;;20.37;51.99
58686;BME280;44465;53.206;-6.106;2023-04-29T07:32:25;101787.00;;;20.38;51.88
58686;BME280;44465;53.206;-6.106;2023-04-29T07:34:51;101773.00;;;20.30;52.01
58686;BME280;44465;53.206;-6.106;2023-04-29T07:37:17;101776.59;;;20.29;52.22
58686;BME280;44465;53.206;-6.106;2023-04-29T07:39:42;101792.22;;;20.41;52.25
58686;BME280;44465;53.206;-6.106;2023-04-29T07:42:09;101777.31;;;20.34;51.95
58686;BME280;44465;53.206;-6.106;2023-04-29T07:44:34;101783.25;;;20.42;52.13
58686;BME280;44465;53.206;-6.106;2023-04-29T07:47:01;101759.88;;;20.24;51.97
58686;BME280;44465;53.206;-6.106;2023-04-29T07:49:27;101727.53;;;20.06;52.00
58686;BME280;44465;53.206;-6.106;2023-04-29T07:51:52;101788.63;;;20.42;52.02
58686;BME280;44465;53.206;-6.106;2023-04-29T07:54:18;101751.94;;;20.21;52.19
58686;BME280;44465;53.206;-6.106;2023-04-29T07:56:44;101772.91;;;20.33;52.15
58686;BME280;44465;53.206;-6.106;2023-04-29T07:59:10;101697.00;;;19.88;52.27
58686;BME280;44465;53.206;-6.106;2023-04-29T08:01:36;101751.09;;;20.20;52.25
58686;BME280;44465;53.206;-6.106;2023-04-29T08:04:02;101723.22;;;20.02;52.07
58686;BME280;44465;53.206;-6.106;2023-04-29T08:06:30;101743.25;;;20.15;52.34
58686;BME280;44465;53.206;-6.106;2023-04-29T08:08:56;101711.88;;;19.95;52.43
58686;BME280;44465;53.206;-6.106;2023-04-29T08:11:21;101762.44;;;20.27;52.30
58686;BME280;44465;53.206;-6.106;2023-04-29T08:13:48;101754.53;;;20.24;52.05
58686;BME280;44465;53.206;-6.106;2023-04-29T08:16:15;101703.16;;;19.90;52.12
58686;BME280;44465;53.206;-6.106;2023-04-29T08:18:41;101729.28;;;20.07;52.13
58686;BME280;44465;53.206;-6.106;2023-04-29T08:21:07;101710.84;;;19.99;52.18
58686;BME280;44465;53.206;-6.106;2023-04-29T08:23:36;101719.72;;;20.00;51.91
58686;BME280;44465;53.206;-6.106;2023-04-29T08:26:02;101761.44;;;20.29;51.92
58686;BME280;44465;53.206;-6.106;2023-04-29T08:28:27;101714.34;;;20.02;52.12
58686;BME280;44465;53.206;-6.106;2023-04-29T08:30:53;101749.28;;;20.21;52.18
58686;BME280;44465;53.206;-6.106;2023-04-29T08:33:19;101724.91;;;20.05;51.92
58686;BME280;44465;53.206;-6.106;2023-04-29T08:35:45;101741.50;;;20.14;52.03
58686;BME280;44465;53.206;-6.106;2023-04-29T08:38:11;101711.66;;;20.02;52.10
58686;BME280;44465;53.206;-6.106;2023-04-29T08:40:42;101703.84;;;19.95;51.96
58686;BME280;44465;53.206;-6.106;2023-04-29T08:43:08;101738.81;;;20.14;52.23
58686;BME280;44465;53.206;-6.106;2023-04-29T08:45:35;101697.50;;;19.98;52.17
58686;BME280;44465;53.206;-6.106;2023-04-29T08:48:05;101692.28;;;19.95;52.03
58686;BME280;44465;53.206;-6.106;2023-04-29T08:50:37;101760.34;;;20.35;52.11
58686;BME280;44465;53.206;-6.106;2023-04-29T08:53:05;101720.28;;;20.10;52.09
58686;BME280;44465;53.206;-6.106;2023-04-29T08:55:40;101705.50;;;19.99;51.91
58686;BME280;44465;53.206;-6.106;2023-04-29T08:58:07;101709.84;;;20.02;52.06
58686;BME280;44465;53.206;-6.106;2023-04-29T09:00:34;101760.34;;;20.35;52.24
58686;BME280;44465;53.206;-6.106;2023-04-29T09:03:05;101735.09;;;20.19;51.89
58686;BME280;44465;53.206;-6.106;2023-04-29T09:05:37;101748.00;;;20.31;51.97
58686;BME280;44465;53.206;-6.106;2023-04-29T09:08:03;101723.81;;;20.10;52.08
58686;BME280;44465;53.206;-6.106;2023-04-29T09:10:30;101762.78;;;20.41;52.12
58686;BME280;44465;53.206;-6.106;2023-04-29T09:12:56;101735.03;;;20.20;52.01
58686;BME280;44465;53.206;-6.106;2023-04-29T09:15:24;101730.53;;;20.22;51.81
58686;BME280;44465;53.206;-6.106;2023-04-29T09:17:50;101793.50;;;20.55;52.21
58686;BME280;44465;53.206;-6.106;2023-04-29T09:22:49;101800.63;;;20.56;52.05
58686;BME280;44465;53.206;-6.106;2023-04-29T09:25:15;101741.16;;;20.24;52.04
58686;BME280;44465;53.206;-6.106;2023-04-29T09:27:41;101803.97;;;20.61;52.25
58686;BME280;44465;53.206;-6.106;2023-04-29T09:30:07;101738.47;;;20.24;52.01
58686;BME280;44465;53.206;-6.106;2023-04-29T09:32:33;101758.72;;;20.31;51.97
58686;BME280;44465;53.206;-6.106;2023-04-29T09:35:31;101704.91;;;19.91;52.05
58686;BME280;44465;53.206;-6.106;2023-04-29T09:38:26;101771.78;;;20.15;52.29
58686;BME280;44465;53.206;-6.106;2023-04-29T09:40:52;101788.53;;;20.20;52.68
58686;BME280;44465;53.206;-6.106;2023-04-29T09:43:18;101795.81;;;20.17;52.91
58686;BME280;44465;53.206;-6.106;2023-04-29T09:45:45;101755.94;;;19.83;53.63
58686;BME280;44465;53.206;-6.106;2023-04-29T09:48:11;101789.13;;;19.76;53.95
58686;BME280;44465;53.206;-6.106;2023-04-29T09:50:38;101720.56;;;19.50;53.75
58686;BME280;44465;53.206;-6.106;2023-04-29T09:53:05;101776.50;;;19.81;53.41
58686;BME280;44465;53.206;-6.106;2023-04-29T09:58:30;101834.59;;;20.03;52.65
58686;BME280;44465;53.206;-6.106;2023-04-29T10:00:58;101767.44;;;19.59;52.36
58686;BME280;44465;53.206;-6.106;2023-04-29T10:03:33;101781.53;;;19.64;52.25
58686;BME280;44465;53.206;-6.106;2023-04-29T10:06:00;101743.88;;;19.45;52.41
58686;BME280;44465;53.206;-6.106;2023-04-29T10:08:28;101742.91;;;19.47;52.00
58686;BME280;44465;53.206;-6.106;2023-04-29T10:10:56;101785.66;;;19.74;52.02
58686;BME280;44465;53.206;-6.106;2023-04-29T10:13:24;101821.69;;;19.89;52.12
58686;BME280;44465;53.206;-6.106;2023-04-29T10:16:09;101827.81;;;19.93;52.61
58686;BME280;44465;53.206;-6.106;2023-04-29T10:18:36;101805.06;;;19.79;52.50
58686;BME280;44465;53.206;-6.106;2023-04-29T10:21:06;101766.16;;;19.44;52.47
58686;BME280;44465;53.206;-6.106;2023-04-29T10:23:32;101751.47;;;19.30;52.27
58686;BME280;44465;53.206;-6.106;2023-04-29T10:25:59;101737.66;;;19.17;52.36
58686;BME280;44465;53.206;-6.106;2023-04-29T10:28:26;101791.91;;;19.46;52.68
58686;BME280;44465;53.206;-6.106;2023-04-29T10:30:54;101714.00;;;19.05;52.53
58686;BME280;44465;53.206;-6.106;2023-04-29T10:33:22;101808.50;;;19.56;52.51
58686;BME280;44465;53.206;-6.106;2023-04-29T10:35:48;101796.38;;;19.46;52.97
58686;BME280;44465;53.206;-6.106;2023-04-29T10:38:28;101832.31;;;19.64;52.64
58686;BME280;44465;53.206;-6.106;2023-04-29T10:40:57;101745.13;;;19.06;52.83
58686;BME280;44465;53.206;-6.106;2023-04-29T10:43:24;101771.22;;;19.25;53.11
58686;BME280;44465;53.206;-6.106;2023-04-29T10:46:17;101837.75;;;19.61;52.95
58686;BME280;44465;53.206;-6.106;2023-04-29T10:48:43;101834.50;;;19.51;52.77
58686;BME280;44465;53.206;-6.106;2023-04-29T10:51:09;101767.94;;;19.16;52.94
58686;BME280;44465;53.206;-6.106;2023-04-29T10:53:34;101794.34;;;19.26;53.04
58686;BME280;44465;53.206;-6.106;2023-04-29T10:56:06;101760.06;;;19.13;52.86
58686;BME280;44465;53.206;-6.106;2023-04-29T10:58:36;101849.22;;;19.64;52.75
58686;BME280;44465;53.206;-6.106;2023-04-29T11:01:02;101738.41;;;18.92;53.03
58686;BME280;44465;53.206;-6.106;2023-04-29T11:06:10;101841.75;;;19.47;52.91
58686;BME280;44465;53.206;-6.106;2023-04-29T11:08:39;101846.16;;;19.48;53.15
58686;BME280;44465;53.206;-6.106;2023-04-29T11:11:05;101854.94;;;19.52;53.16
58686;BME280;44465;53.206;-6.106;2023-04-29T11:13:31;101806.84;;;19.25;53.08
58686;BME280;44465;53.206;-6.106;2023-04-29T11:16:05;101856.84;;;19.48;53.04
58686;BME280;44465;53.206;-6.106;2023-04-29T11:18:32;101860.59;;;19.43;53.33
58686;BME280;44465;53.206;-6.106;2023-04-29T11:23:33;101850.97;;;19.37;53.37
58686;BME280;44465;53.206;-6.106;2023-04-29T11:26:00;101809.88;;;19.13;55.92
58686;BME280;44465;53.206;-6.106;2023-04-29T11:28:30;101850.19;;;19.33;57.16
58686;BME280;44465;53.206;-6.106;2023-04-29T11:30:58;101777.72;;;18.87;57.34
58686;BME280;44465;53.206;-6.106;2023-04-29T11:33:25;101812.91;;;19.02;57.07
58686;BME280;44465;53.206;-6.106;2023-04-29T11:35:53;101758.81;;;18.65;57.69
58686;BME280;44465;53.206;-6.106;2023-04-29T11:38:28;101788.22;;;18.94;57.41
58686;BME280;44465;53.206;-6.106;2023-04-29T11:40:55;101844.31;;;19.22;58.00
58686;BME280;44465;53.206;-6.106;2023-04-29T11:43:22;101723.94;;;18.41;59.22
58686;BME280;44465;53.206;-6.106;2023-04-29T11:45:49;101759.03;;;18.57;58.77
58686;BME280;44465;53.206;-6.106;2023-04-29T11:48:23;101779.41;;;18.60;59.00
58686;BME280;44465;53.206;-6.106;2023-04-29T11:50:56;101744.63;;;18.33;58.46
58686;BME280;44465;53.206;-6.106;2023-04-29T11:53:26;101718.72;;;18.07;60.01
58686;BME280;44465;53.206;-6.106;2023-04-29T11:55:52;101760.66;;;18.32;59.84
58686;BME280;44465;53.206;-6.106;2023-04-29T11:58:22;101833.28;;;18.73;60.30
58686;BME280;44465;53.206;-6.106;2023-04-29T12:00:48;101767.66;;;18.36;60.00
58686;BME280;44465;53.206;-6.106;2023-04-29T12:03:15;101732.69;;;18.15;59.89
58686;BME280;44465;53.206;-6.106;2023-04-29T12:05:51;101715.34;;;18.00;59.47
58686;BME280;44465;53.206;-6.106;2023-04-29T12:08:27;101761.69;;;18.26;60.24
58686;BME280;44465;53.206;-6.106;2023-04-29T12:10:56;101801.06;;;18.49;60.34
58686;BME280;44465;53.206;-6.106;2023-04-29T12:13:23;101737.94;;;18.18;60.12
58686;BME280;44465;53.206;-6.106;2023-04-29T12:15:50;101730.69;;;18.23;60.25
58686;BME280;44465;53.206;-6.106;2023-04-29T12:18:17;101822.59;;;18.73;61.20
58686;BME280;44465;53.206;-6.106;2023-04-29T12:20:44;101820.69;;;18.78;61.43
58686;BME280;44465;53.206;-6.106;2023-04-29T12:23:17;101761.22;;;18.43;61.27
58686;BME280;44465;53.206;-6.106;2023-04-29T12:28:19;101754.41;;;18.33;63.19
58686;BME280;44465;53.206;-6.106;2023-04-29T12:30:46;101767.59;;;18.37;63.04
58686;BME280;44465;53.206;-6.106;2023-04-29T12:33:23;101758.94;;;18.31;62.51
58686;BME280;44465;53.206;-6.106;2023-04-29T12:35:50;101811.47;;;18.58;63.04
58686;BME280;44465;53.206;-6.106;2023-04-29T12:38:24;101751.16;;;18.21;62.97
58686;BME280;44465;53.206;-6.106;2023-04-29T12:40:52;101762.13;;;18.43;62.30
58686;BME280;44465;53.206;-6.106;2023-04-29T12:43:18;101773.09;;;18.63;61.61
58686;BME280;44465;53.206;-6.106;2023-04-29T12:45:44;101814.38;;;18.81;61.90
58686;BME280;44465;53.206;-6.106;2023-04-29T12:48:11;101707.72;;;18.18;62.97
58686;BME280;44465;53.206;-6.106;2023-04-29T12:50:37;101767.13;;;18.54;61.75
58686;BME280;44465;53.206;-6.106;2023-04-29T12:53:04;101760.09;;;18.52;61.92
58686;BME280;44465;53.206;-6.106;2023-04-29T12:55:35;101818.84;;;18.80;62.62
58686;BME280;44465;53.206;-6.106;2023-04-29T12:58:04;101750.94;;;18.31;63.32
58686;BME280;44465;53.206;-6.106;2023-04-29T13:00:31;101756.88;;;18.40;62.63
58686;BME280;44465;53.206;-6.106;2023-04-29T13:02:58;101812.13;;;18.67;62.38
58686;BME280;44465;53.206;-6.106;2023-04-29T13:05:24;101768.38;;;18.42;61.87
58686;BME280;44465;53.206;-6.106;2023-04-29T13:07:50;101721.09;;;18.48;60.60
58686;BME280;44465;53.206;-6.106;2023-04-29T13:10:16;101694.31;;;18.51;59.68